sensor_id;sensor_type;location;lat;lon;timestamp;pressure;altitude;pressure_sealevel;temperature;humidity
55858;BME280;41779;52.360;31.026;2022-11-12T00:04:07;1036.5;;;11.1;69.2
55858;BME280;41779;52.360;31.026;2022-11-12T00:09:51;1036.5;;;11.1;69.2
55858;BME280;41779;52.360;31.026;2022-11-12T00:14:23;1036.6;;;11.1;69.4
55858;BME280;41779;52.360;31.026;2022-11-12T00:19:37;1036.5;;;11.1;69.6
55858;BME280;41779;52.360;31.026;2022-11-12T00:24:19;1036.3;;;11.2;69.6
55858;BME280;41779;52.360;31.026;2022-11-12T00:29:07;1036.3;;;11.2;69.4
55858;BME280;41779;52.360;31.026;2022-11-12T00:34:53;1036.2;;;11.3;69.4
55858;BME280;41779;52.360;31.026;2022-11-12T00:39:51;1036.1;;;11.3;69.5
55858;BME280;41779;52.360;31.026;2022-11-12T00:44:53;1036;;;11.3;69.6
55858;BME280;41779;52.360;31.026;2022-11-12T00:49:25;1036.1;;;11.3;69.6
55858;BME280;41779;52.360;31.026;2022-11-12T00:54:23;1036.2;;;11.3;69.6
55858;BME280;41779;52.360;31.026;2022-11-12T00:59:07;1036.2;;;11.4;69.6
55858;BME280;41779;52.360;31.026;2022-11-12T01:04:53;1036.1;;;11.3;69.8
55858;BME280;41779;52.360;31.026;2022-11-12T01:09:17;1036.1;;;11.4;69.9
55858;BME280;41779;52.360;31.026;2022-11-12T01:14:39;1036;;;11.5;69.8
55858;BME280;41779;52.360;31.026;2022-11-12T01:19:13;1035.9;;;11.5;69.9
55858;BME280;41779;52.360;31.026;2022-11-12T01:24:53;1035.9;;;11.5;69.8
55858;BME280;41779;52.360;31.026;2022-11-12T01:29:29;1035.8;;;11.5;69.9
55858;BME280;41779;52.360;31.026;2022-11-12T01:34:41;1035.9;;;11.6;69.9
55858;BME280;41779;52.360;31.026;2022-11-12T01:39:43;1035.8;;;11.6;69.9
55858;BME280;41779;52.360;31.026;2022-11-12T01:44:33;1035.9;;;11.6;70
55858;BME280;41779;52.360;31.026;2022-11-12T01:49:55;1036;;;11.6;70.2
55858;BME280;41779;52.360;31.026;2022-11-12T01:54:56;1035.9;;;11.6;70.4
55858;BME280;41779;52.360;31.026;2022-11-12T01:59:55;1036;;;11.6;70.6
55858;BME280;41779;52.360;31.026;2022-11-12T02:04:07;1036.1;;;11.6;70.7
55858;BME280;41779;52.360;31.026;2022-11-12T02:09:19;1036;;;11.5;71
55858;BME280;41779;52.360;31.026;2022-11-12T02:14:17;1036.1;;;11.5;71.4
55858;BME280;41779;52.360;31.026;2022-11-12T02:19:57;1036.2;;;11.4;71.5
55858;BME280;41779;52.360;31.026;2022-11-12T02:24:32;1036.1;;;11.5;71.4
55858;BME280;41779;52.360;31.026;2022-11-12T02:29:43;1036;;;11.5;71.6
55858;BME280;41779;52.360;31.026;2022-11-12T02:34:07;1036;;;11.5;71.7
55858;BME280;41779;52.360;31.026;2022-11-12T02:39:55;1036;;;11.6;71.6
55858;BME280;41779;52.360;31.026;2022-11-12T02:44:29;1035.9;;;11.7;71.3
55858;BME280;41779;52.360;31.026;2022-11-12T02:49:29;1035.9;;;11.7;71.3
55858;BME280;41779;52.360;31.026;2022-11-12T02:54:39;1035.9;;;11.7;71.2
55858;BME280;41779;52.360;31.026;2022-11-12T02:59:27;1035.8;;;11.7;71.2
55858;BME280;41779;52.360;31.026;2022-11-12T03:04:55;1035.9;;;11.8;71.3
55858;BME280;41779;52.360;31.026;2022-11-12T03:09:53;1035.8;;;11.8;71.3
55858;BME280;41779;52.360;31.026;2022-11-12T03:14:55;1035.9;;;11.8;71.2
55858;BME280;41779;52.360;31.026;2022-11-12T03:19:27;1035.9;;;11.8;71.3
55858;BME280;41779;52.360;31.026;2022-11-12T03:24:17;1035.9;;;11.9;71.3
55858;BME280;41779;52.360;31.026;2022-11-12T03:29:29;1036;;;11.9;71.2
55858;BME280;41779;52.360;31.026;2022-11-12T03:34:55;1036.1;;;11.9;71.3
55858;BME280;41779;52.360;31.026;2022-11-12T03:39:27;1036.1;;;11.9;71.4
55858;BME280;41779;52.360;31.026;2022-11-12T03:44:41;1036.2;;;11.9;71.5
55858;BME280;41779;52.360;31.026;2022-11-12T03:49:19;1036.2;;;11.9;71.6
55858;BME280;41779;52.360;31.026;2022-11-12T03:54:55;1036.1;;;11.9;71.5
55858;BME280;41779;52.360;31.026;2022-11-12T03:59:29;1036;;;11.9;71.6
55858;BME280;41779;52.360;31.026;2022-11-12T04:04:41;1036;;;11.8;71.8
55858;BME280;41779;52.360;31.026;2022-11-12T04:09:39;1035.9;;;11.9;71.9
55858;BME280;41779;52.360;31.026;2022-11-12T04:14:25;1035.9;;;11.9;71.9
55858;BME280;41779;52.360;31.026;2022-11-12T04:19:55;1035.8;;;11.9;71.9
55858;BME280;41779;52.360;31.026;2022-11-12T04:24:55;1035.8;;;11.9;72.1
55858;BME280;41779;52.360;31.026;2022-11-12T04:29:55;1035.7;;;11.9;72.1
55858;BME280;41779;52.360;31.026;2022-11-12T04:34:53;1035.6;;;11.9;72.1
55858;BME280;41779;52.360;31.026;2022-11-12T04:39:07;1035.6;;;11.9;72
55858;BME280;41779;52.360;31.026;2022-11-12T04:44:07;1035.7;;;11.9;72.1
55858;BME280;41779;52.360;31.026;2022-11-12T04:49:29;1035.6;;;11.9;72.2
55858;BME280;41779;52.360;31.026;2022-11-12T04:54:55;1035.7;;;11.9;72.3
55858;BME280;41779;52.360;31.026;2022-11-12T04:59:54;1035.6;;;11.9;72.3
55858;BME280;41779;52.360;31.026;2022-11-12T05:04:07;1035.5;;;11.9;72.3
55858;BME280;41779;52.360;31.026;2022-11-12T05:09:17;1035.5;;;11.9;72.2
55858;BME280;41779;52.360;31.026;2022-11-12T05:14:31;1035.4;;;11.9;72.2
55858;BME280;41779;52.360;31.026;2022-11-12T05:19:43;1035.4;;;11.9;72.3
55858;BME280;41779;52.360;31.026;2022-11-12T05:24:32;1035.5;;;11.9;72.5
55858;BME280;41779;52.360;31.026;2022-11-12T05:29:17;1035.5;;;11.9;72.5
55858;BME280;41779;52.360;31.026;2022-11-12T05:34:07;1035.6;;;11.8;72.7
55858;BME280;41779;52.360;31.026;2022-11-12T05:39:51;1035.6;;;11.8;72.8
55858;BME280;41779;52.360;31.026;2022-11-12T05:44:29;1035.7;;;11.9;72.8
55858;BME280;41779;52.360;31.026;2022-11-12T05:49:53;1035.6;;;11.9;72.7
55858;BME280;41779;52.360;31.026;2022-11-12T05:54:19;1035.6;;;11.9;72.7
55858;BME280;41779;52.360;31.026;2022-11-12T05:59:07;1035.5;;;11.9;72.8
55858;BME280;41779;52.360;31.026;2022-11-12T06:04:29;1035.4;;;11.9;72.8
55858;BME280;41779;52.360;31.026;2022-11-12T06:09:55;1035.4;;;12;72.7
55858;BME280;41779;52.360;31.026;2022-11-12T06:14:55;1035.4;;;12;72.7
55858;BME280;41779;52.360;31.026;2022-11-12T06:19:27;1035.3;;;12;72.6
55858;BME280;41779;52.360;31.026;2022-11-12T06:24:17;1035.3;;;12;72.4
55858;BME280;41779;52.360;31.026;2022-11-12T06:29:41;1035.3;;;12;72.3
55858;BME280;41779;52.360;31.026;2022-11-12T06:34:53;1035.4;;;12;72.4
55858;BME280;41779;52.360;31.026;2022-11-12T06:39:15;1035.4;;;12;72.3
55858;BME280;41779;52.360;31.026;2022-11-12T06:44:07;1035.5;;;12;72.3
55858;BME280;41779;52.360;31.026;2022-11-12T06:49:27;1035.5;;;12.1;72.3
55858;BME280;41779;52.360;31.026;2022-11-12T06:54:55;1035.5;;;12.1;72.2
55858;BME280;41779;52.360;31.026;2022-11-12T06:59:27;1035.5;;;12.1;72
55858;BME280;41779;52.360;31.026;2022-11-12T07:04:55;1035.4;;;12.1;72
55858;BME280;41779;52.360;31.026;2022-11-12T07:09:29;1035.5;;;12.1;71.9
55858;BME280;41779;52.360;31.026;2022-11-12T07:14:07;1035.6;;;12.1;71.9
55858;BME280;41779;52.360;31.026;2022-11-12T07:19:29;1035.5;;;12.1;72
55858;BME280;41779;52.360;31.026;2022-11-12T07:24:55;1035.4;;;12.1;72
55858;BME280;41779;52.360;31.026;2022-11-12T07:29:53;1035.4;;;12.2;71.8
55858;BME280;41779;52.360;31.026;2022-11-12T07:34:17;1035.4;;;12.2;71.8
55858;BME280;41779;52.360;31.026;2022-11-12T07:39:27;1035.4;;;12.2;71.7
55858;BME280;41779;52.360;31.026;2022-11-12T07:44:27;1035.3;;;12.2;71.7
55858;BME280;41779;52.360;31.026;2022-11-12T07:49:41;1035.4;;;12.3;71.8
55858;BME280;41779;52.360;31.026;2022-11-12T07:54:07;1035.4;;;12.4;71.6
55858;BME280;41779;52.360;31.026;2022-11-12T07:59:17;1035.4;;;12.4;71.3
55858;BME280;41779;52.360;31.026;2022-11-12T08:04:08;1035.3;;;12.5;71.1
55858;BME280;41779;52.360;31.026;2022-11-12T08:09:43;1035.3;;;12.4;71.1
55858;BME280;41779;52.360;31.026;2022-11-12T08:14:27;1035.2;;;12.5;71.2
55858;BME280;41779;52.360;31.026;2022-11-12T08:19:53;1035;;;12.5;71.2
55858;BME280;41779;52.360;31.026;2022-11-12T08:24:19;1035;;;12.5;71
55858;BME280;41779;52.360;31.026;2022-11-12T08:29:07;1035;;;12.4;71.2
55858;BME280;41779;52.360;31.026;2022-11-12T08:34:17;1034.8;;;12.4;71.3
55858;BME280;41779;52.360;31.026;2022-11-12T08:39:53;1034.7;;;12.5;71.4
55858;BME280;41779;52.360;31.026;2022-11-12T08:44:55;1034.8;;;12.5;71.1
55858;BME280;41779;52.360;31.026;2022-11-12T08:49:41;1034.7;;;12.5;71
55858;BME280;41779;52.360;31.026;2022-11-12T08:54:17;1034.8;;;12.5;71
55858;BME280;41779;52.360;31.026;2022-11-12T08:59:43;1034.9;;;12.6;71
55858;BME280;41779;52.360;31.026;2022-11-12T09:04:43;1035;;;12.7;70.8
55858;BME280;41779;52.360;31.026;2022-11-12T09:09:07;1035;;;12.7;70.7
55858;BME280;41779;52.360;31.026;2022-11-12T09:14:55;1034.9;;;12.7;70.7
55858;BME280;41779;52.360;31.026;2022-11-12T09:19:07;1034.9;;;12.7;70.7
55858;BME280;41779;52.360;31.026;2022-11-12T09:24:55;1034.8;;;12.8;70.7
55858;BME280;41779;52.360;31.026;2022-11-12T09:29:07;1034.8;;;12.8;70.5
55858;BME280;41779;52.360;31.026;2022-11-12T09:34:55;1034.8;;;12.8;70.5
55858;BME280;41779;52.360;31.026;2022-11-12T09:39:25;1034.7;;;12.9;70.4
55858;BME280;41779;52.360;31.026;2022-11-12T09:44:18;1034.7;;;13;70.3
55858;BME280;41779;52.360;31.026;2022-11-12T09:49:27;1034.5;;;13;70.3
55858;BME280;41779;52.360;31.026;2022-11-12T09:54:41;1034.5;;;13;70
55858;BME280;41779;52.360;31.026;2022-11-12T09:59:55;1034.5;;;13;70
55858;BME280;41779;52.360;31.026;2022-11-12T10:05:00;1034.4;;;13.1;69.8
55858;BME280;41779;52.360;31.026;2022-11-12T10:09:07;1034.3;;;13.1;69.8
55858;BME280;41779;52.360;31.026;2022-11-12T10:14:45;1034.2;;;13.1;69.7
55858;BME280;41779;52.360;31.026;2022-11-12T10:19:45;1034.2;;;13.1;69.8
55858;BME280;41779;52.360;31.026;2022-11-12T10:24:18;1034.2;;;13.2;69.7
55858;BME280;41779;52.360;31.026;2022-11-12T10:29:59;1034.3;;;13.2;69.8
55858;BME280;41779;52.360;31.026;2022-11-12T10:34:18;1034.3;;;13.3;69.6
55858;BME280;41779;52.360;31.026;2022-11-12T10:39:42;1034.3;;;13.3;69.4
55858;BME280;41779;52.360;31.026;2022-11-12T10:44:29;1034.2;;;13.3;69.5
55858;BME280;41779;52.360;31.026;2022-11-12T10:50:00;1034;;;13.3;69.4
55858;BME280;41779;52.360;31.026;2022-11-12T10:54:20;1033.9;;;13.3;69.5
55858;BME280;41779;52.360;31.026;2022-11-12T10:59:31;1033.9;;;13.3;69.4
55858;BME280;41779;52.360;31.026;2022-11-12T11:04:29;1033.9;;;13.3;69.4
55858;BME280;41779;52.360;31.026;2022-11-12T11:09:50;1033.8;;;13.4;69.3
55858;BME280;41779;52.360;31.026;2022-11-12T11:14:47;1033.8;;;13.4;69.4
55858;BME280;41779;52.360;31.026;2022-11-12T11:19:57;1033.7;;;13.4;69.3
55858;BME280;41779;52.360;31.026;2022-11-12T11:24:20;1033.7;;;13.3;69.5
55858;BME280;41779;52.360;31.026;2022-11-12T11:29:46;1033.7;;;13.4;69.5
55858;BME280;41779;52.360;31.026;2022-11-12T11:34:46;1033.7;;;13.4;69.5
55858;BME280;41779;52.360;31.026;2022-11-12T11:39:10;1033.6;;;13.4;69.6
55858;BME280;41779;52.360;31.026;2022-11-12T11:44:54;1033.6;;;13.3;69.7
55858;BME280;41779;52.360;31.026;2022-11-12T11:49:21;1033.6;;;13.4;69.9
55858;BME280;41779;52.360;31.026;2022-11-12T11:54:59;1033.6;;;13.4;69.8
55858;BME280;41779;52.360;31.026;2022-11-12T11:59:21;1033.6;;;13.3;69.9
55858;BME280;41779;52.360;31.026;2022-11-12T12:04:56;1033.6;;;13.3;70
55858;BME280;41779;52.360;31.026;2022-11-12T12:09:21;1033.7;;;13.3;70.3
55858;BME280;41779;52.360;31.026;2022-11-12T12:14:11;1033.6;;;13.3;70.4
55858;BME280;41779;52.360;31.026;2022-11-12T12:19:33;1033.7;;;13.3;70.3
55858;BME280;41779;52.360;31.026;2022-11-12T12:24:24;1033.6;;;13.3;70.3
55858;BME280;41779;52.360;31.026;2022-11-12T12:29:58;1033.7;;;13.3;70.5
55858;BME280;41779;52.360;31.026;2022-11-12T12:34:56;1033.7;;;13.2;70.7
55858;BME280;41779;52.360;31.026;2022-11-12T12:39:30;1033.6;;;13.2;70.7
55858;BME280;41779;52.360;31.026;2022-11-12T12:44:44;1033.6;;;13.2;70.7
55858;BME280;41779;52.360;31.026;2022-11-12T12:49:31;1033.6;;;13.2;70.8
55858;BME280;41779;52.360;31.026;2022-11-12T12:54:43;1033.6;;;13.1;70.9
55858;BME280;41779;52.360;31.026;2022-11-12T13:01:02;1033.7;;;13.1;71.1
55858;BME280;41779;52.360;31.026;2022-11-12T13:04:51;1033.7;;;13.2;70.8
55858;BME280;41779;52.360;31.026;2022-11-12T13:10:24;1033.7;;;13.2;70.7
55858;BME280;41779;52.360;31.026;2022-11-12T13:19:25;1033.7;;;13.2;70.7
55858;BME280;41779;52.360;31.026;2022-11-12T13:25:02;1033.7;;;13.2;70.8
55858;BME280;41779;52.360;31.026;2022-11-12T13:34:43;1033.7;;;13.1;70.8
55858;BME280;41779;52.360;31.026;2022-11-12T13:39:43;1033.8;;;13.1;70.9
55858;BME280;41779;52.360;31.026;2022-11-12T13:44:07;1033.8;;;13.1;70.8
55858;BME280;41779;52.360;31.026;2022-11-12T13:49:55;1033.7;;;13.1;70.9
55858;BME280;41779;52.360;31.026;2022-11-12T13:54:25;1033.7;;;13.1;70.7
55858;BME280;41779;52.360;31.026;2022-11-12T14:00:29;1033.8;;;13.1;70.7
55858;BME280;41779;52.360;31.026;2022-11-12T14:04:41;1033.9;;;13.1;70.7
55858;BME280;41779;52.360;31.026;2022-11-12T14:09:22;1033.9;;;13.1;70.6
55858;BME280;41779;52.360;31.026;2022-11-12T14:14:46;1033.9;;;13.1;70.4
55858;BME280;41779;52.360;31.026;2022-11-12T14:19:39;1034;;;13.1;70.3
55858;BME280;41779;52.360;31.026;2022-11-12T14:24:45;1034;;;13.1;70.3
55858;BME280;41779;52.360;31.026;2022-11-12T14:29:29;1034.1;;;13.1;70.2
55858;BME280;41779;52.360;31.026;2022-11-12T14:34:55;1034.2;;;13.2;69.9
55858;BME280;41779;52.360;31.026;2022-11-12T14:39:27;1034.2;;;13.2;69.9
55858;BME280;41779;52.360;31.026;2022-11-12T14:44:18;1034.2;;;13.2;69.7
55858;BME280;41779;52.360;31.026;2022-11-12T14:49:31;1034.3;;;13.3;69.5
55858;BME280;41779;52.360;31.026;2022-11-12T14:54:45;1034.3;;;13.4;69.3
55858;BME280;41779;52.360;31.026;2022-11-12T14:59:08;1034.3;;;13.4;68.8
55858;BME280;41779;52.360;31.026;2022-11-12T15:04:58;1034.5;;;13.3;68.8
55858;BME280;41779;52.360;31.026;2022-11-12T15:09:31;1034.5;;;13.4;68.5
55858;BME280;41779;52.360;31.026;2022-11-12T15:15:02;1034.6;;;13.4;68.3
55858;BME280;41779;52.360;31.026;2022-11-12T15:19:31;1034.6;;;13.3;68.1
55858;BME280;41779;52.360;31.026;2022-11-12T15:24:29;1034.6;;;13.3;67.9
55858;BME280;41779;52.360;31.026;2022-11-12T15:29:41;1034.6;;;13.3;67.9
55858;BME280;41779;52.360;31.026;2022-11-12T15:34:29;1034.6;;;13.3;67.9
55858;BME280;41779;52.360;31.026;2022-11-12T15:39:55;1034.7;;;13.4;67.9
55858;BME280;41779;52.360;31.026;2022-11-12T15:44:30;1034.6;;;13.4;67.4
55858;BME280;41779;52.360;31.026;2022-11-12T15:49:33;1034.6;;;13.4;66.9
55858;BME280;41779;52.360;31.026;2022-11-12T15:54:29;1034.6;;;13.4;66.9
55858;BME280;41779;52.360;31.026;2022-11-12T15:59:17;1034.5;;;13.4;66.8
55858;BME280;41779;52.360;31.026;2022-11-12T16:04:07;1034.6;;;13.4;66.8
55858;BME280;41779;52.360;31.026;2022-11-12T16:09:41;1034.6;;;13.5;66.3
55858;BME280;41779;52.360;31.026;2022-11-12T16:14:29;1034.6;;;13.5;66.1
55858;BME280;41779;52.360;31.026;2022-11-12T16:19:57;1034.7;;;13.5;66
55858;BME280;41779;52.360;31.026;2022-11-12T16:24:17;1034.7;;;13.5;65.9
55858;BME280;41779;52.360;31.026;2022-11-12T16:29:57;1034.7;;;13.4;65.7
55858;BME280;41779;52.360;31.026;2022-11-12T16:34:31;1034.7;;;13.5;65.8
55858;BME280;41779;52.360;31.026;2022-11-12T16:39:55;1034.8;;;13.5;65.4
55858;BME280;41779;52.360;31.026;2022-11-12T16:44:41;1034.8;;;13.5;65.5
55858;BME280;41779;52.360;31.026;2022-11-12T16:49:09;1034.7;;;13.5;65.3
55858;BME280;41779;52.360;31.026;2022-11-12T16:54:57;1034.7;;;13.5;65
55858;BME280;41779;52.360;31.026;2022-11-12T16:59:29;1034.7;;;13.5;64.9
55858;BME280;41779;52.360;31.026;2022-11-12T17:04:43;1034.7;;;13.5;65
55858;BME280;41779;52.360;31.026;2022-11-12T17:09:17;1034.7;;;13.5;65
55858;BME280;41779;52.360;31.026;2022-11-12T17:14:07;1034.7;;;13.5;64.9
55858;BME280;41779;52.360;31.026;2022-11-12T17:19:08;1034.6;;;13.4;64.9
55858;BME280;41779;52.360;31.026;2022-11-12T17:24:57;1034.6;;;13.4;64.9
55858;BME280;41779;52.360;31.026;2022-11-12T17:29:15;1034.6;;;13.4;65.1
55858;BME280;41779;52.360;31.026;2022-11-12T17:34:41;1034.6;;;13.4;65
55858;BME280;41779;52.360;31.026;2022-11-12T17:39:27;1034.5;;;13.4;65
55858;BME280;41779;52.360;31.026;2022-11-12T17:44:57;1034.5;;;13.4;65.3
55858;BME280;41779;52.360;31.026;2022-11-12T17:49:07;1034.4;;;13.5;65.3
55858;BME280;41779;52.360;31.026;2022-11-12T17:54:41;1034.5;;;13.4;65.5
55858;BME280;41779;52.360;31.026;2022-11-12T17:59:41;1034.5;;;13.4;65.7
55858;BME280;41779;52.360;31.026;2022-11-12T18:04:08;1034.4;;;13.4;66
55858;BME280;41779;52.360;31.026;2022-11-12T18:09:53;1034.4;;;13.4;66
55858;BME280;41779;52.360;31.026;2022-11-12T18:14:55;1034.3;;;13.4;66.1
55858;BME280;41779;52.360;31.026;2022-11-12T18:19:55;1034.2;;;13.4;66.4
55858;BME280;41779;52.360;31.026;2022-11-12T18:24:27;1034.2;;;13.4;66.5
55858;BME280;41779;52.360;31.026;2022-11-12T18:29:07;1034.1;;;13.3;66.6
55858;BME280;41779;52.360;31.026;2022-11-12T18:34:29;1034.1;;;13.4;66.6
55858;BME280;41779;52.360;31.026;2022-11-12T18:39:55;1034.2;;;13.3;66.7
55858;BME280;41779;52.360;31.026;2022-11-12T18:44:29;1034.2;;;13.4;66.7
55858;BME280;41779;52.360;31.026;2022-11-12T18:49:41;1034.1;;;13.4;66.7
55858;BME280;41779;52.360;31.026;2022-11-12T18:54:17;1034.2;;;13.4;66.7
55858;BME280;41779;52.360;31.026;2022-11-12T18:59:57;1034.2;;;13.4;66.8
55858;BME280;41779;52.360;31.026;2022-11-12T19:04:29;1034.3;;;13.3;67.1
55858;BME280;41779;52.360;31.026;2022-11-12T19:09:43;1034.3;;;13.3;67.3
55858;BME280;41779;52.360;31.026;2022-11-12T19:14:41;1034.3;;;13.3;67.2
55858;BME280;41779;52.360;31.026;2022-11-12T19:19:17;1034.3;;;13.3;67.2
55858;BME280;41779;52.360;31.026;2022-11-12T19:24:55;1034.3;;;13.3;67.4
55858;BME280;41779;52.360;31.026;2022-11-12T19:29:57;1034.3;;;13.3;67.6
55858;BME280;41779;52.360;31.026;2022-11-12T19:34:57;1034.3;;;13.3;67.5
55858;BME280;41779;52.360;31.026;2022-11-12T19:39:29;1034.3;;;13.3;67.6
55858;BME280;41779;52.360;31.026;2022-11-12T19:44:27;1034.2;;;13.3;67.7
55858;BME280;41779;52.360;31.026;2022-11-12T19:49:29;1034.2;;;13.2;67.9
55858;BME280;41779;52.360;31.026;2022-11-12T19:54:57;1034.2;;;13.2;68.1
55858;BME280;41779;52.360;31.026;2022-11-12T19:59:27;1034.3;;;13.2;68.1
55858;BME280;41779;52.360;31.026;2022-11-12T20:04:41;1034.3;;;13.2;68.2
55858;BME280;41779;52.360;31.026;2022-11-12T20:09:07;1034.3;;;13.1;68.5
55858;BME280;41779;52.360;31.026;2022-11-12T20:14:57;1034.3;;;13.2;68.7
55858;BME280;41779;52.360;31.026;2022-11-12T20:19:19;1034.4;;;13.3;68.6
55858;BME280;41779;52.360;31.026;2022-11-12T20:24:41;1034.4;;;13.3;68.7
55858;BME280;41779;52.360;31.026;2022-11-12T20:29:43;1034.4;;;13.2;69.1
55858;BME280;41779;52.360;31.026;2022-11-12T20:34:09;1034.5;;;13.2;69.5
55858;BME280;41779;52.360;31.026;2022-11-12T20:39:55;1034.5;;;13.2;69.7
55858;BME280;41779;52.360;31.026;2022-11-12T20:44:57;1034.4;;;13.3;69.7
55858;BME280;41779;52.360;31.026;2022-11-12T20:49:55;1034.3;;;13.3;69.6
55858;BME280;41779;52.360;31.026;2022-11-12T20:54:35;1034.2;;;13.3;69.8
55858;BME280;41779;52.360;31.026;2022-11-12T20:59:07;1034.3;;;13.3;69.8
55858;BME280;41779;52.360;31.026;2022-11-12T21:04:41;1034.4;;;13.3;69.6
55858;BME280;41779;52.360;31.026;2022-11-12T21:09:55;1034.4;;;13.3;69.7
55858;BME280;41779;52.360;31.026;2022-11-12T21:14:09;1034.5;;;13.3;69.9
55858;BME280;41779;52.360;31.026;2022-11-12T21:19:43;1034.5;;;13.3;69.9
55858;BME280;41779;52.360;31.026;2022-11-12T21:24:17;1034.5;;;13.3;69.7
55858;BME280;41779;52.360;31.026;2022-11-12T21:29:57;1034.4;;;13.3;69.7
55858;BME280;41779;52.360;31.026;2022-11-12T21:34:29;1034.4;;;13.2;69.9
55858;BME280;41779;52.360;31.026;2022-11-12T21:39:43;1034.5;;;13.3;70
55858;BME280;41779;52.360;31.026;2022-11-12T21:44:39;1034.5;;;13.3;70.1
55858;BME280;41779;52.360;31.026;2022-11-12T21:49:07;1034.5;;;13.3;69.9
55858;BME280;41779;52.360;31.026;2022-11-12T21:54:17;1034.6;;;13.4;69.8
55858;BME280;41779;52.360;31.026;2022-11-12T21:59:39;1034.6;;;13.4;69.8
55858;BME280;41779;52.360;31.026;2022-11-12T22:04:25;1034.5;;;13.4;69.8
55858;BME280;41779;52.360;31.026;2022-11-12T22:09:51;1034.6;;;13.4;69.8
55858;BME280;41779;52.360;31.026;2022-11-12T22:14:20;1034.6;;;13.4;69.8
55858;BME280;41779;52.360;31.026;2022-11-12T22:19:07;1034.5;;;13.4;69.8
55858;BME280;41779;52.360;31.026;2022-11-12T22:24:35;1034.5;;;13.4;69.8
55858;BME280;41779;52.360;31.026;2022-11-12T22:29:51;1034.5;;;13.4;69.8
55858;BME280;41779;52.360;31.026;2022-11-12T22:34:47;1034.5;;;13.4;69.6
55858;BME280;41779;52.360;31.026;2022-11-12T22:39:23;1034.5;;;13.4;69.8
55858;BME280;41779;52.360;31.026;2022-11-12T22:44:07;1034.5;;;13.4;69.8
55858;BME280;41779;52.360;31.026;2022-11-12T22:49:39;1034.5;;;13.5;69.6
55858;BME280;41779;52.360;31.026;2022-11-12T22:54:39;1034.4;;;13.5;69.7
55858;BME280;41779;52.360;31.026;2022-11-12T22:59:13;1034.4;;;13.4;69.8
55858;BME280;41779;52.360;31.026;2022-11-12T23:04:25;1034.5;;;13.4;70
55858;BME280;41779;52.360;31.026;2022-11-12T23:09:08;1034.5;;;13.5;70
55858;BME280;41779;52.360;31.026;2022-11-12T23:14:37;1034.5;;;13.5;69.8
55858;BME280;41779;52.360;31.026;2022-11-12T23:19:23;1034.5;;;13.5;69.8
55858;BME280;41779;52.360;31.026;2022-11-12T23:24:51;1034.5;;;13.5;69.8
55858;BME280;41779;52.360;31.026;2022-11-12T23:29:08;1034.6;;;13.5;69.9
55858;BME280;41779;52.360;31.026;2022-11-12T23:34:23;1034.6;;;13.5;69.8
55858;BME280;41779;52.360;31.026;2022-11-12T23:39:27;1034.6;;;13.5;69.7
55858;BME280;41779;52.360;31.026;2022-11-12T23:44:53;1034.6;;;13.5;69.6
55858;BME280;41779;52.360;31.026;2022-11-12T23:49:53;1034.7;;;13.5;69.4
55858;BME280;41779;52.360;31.026;2022-11-12T23:54:13;1034.7;;;13.5;69.5
55858;BME280;41779;52.360;31.026;2022-11-12T23:59:13;1034.7;;;13.5;69.3
